Time;durP1;ratioP1;P1;durP2;ratioP2;P2;SDS_P1;SDS_P2;PMS_P1;PMS_P2;Temp;Humidity;BMP_temperature;BMP_pressure;BME280_temperature;BME280_humidity;BME280_pressure;Samples;Min_cycle;Max_cycle;Signal;HPM_P1;HPM_P2
2022/08/04 00:01:21;;;;;;;25.65;7.18;;;20.80;99.90;;;;;;5066425;28;20378;-66
2022/08/04 00:04:19;;;;;;;18.73;6.50;;;20.80;99.90;;;;;;5072402;28;20390;-66
2022/08/04 00:07:06;;;;;;;15.93;6.90;;;20.80;99.90;;;;;;5034209;28;20124;-66
2022/08/04 00:09:53;;;;;;;19.80;7.95;;;20.70;99.90;;;;;;5052058;28;20051;-66
2022/08/04 00:12:23;;;;;;;18.42;6.80;;;20.70;99.90;;;;;;5042530;28;20410;-65
2022/08/04 00:14:53;;;;;;;24.85;8.38;;;20.70;99.90;;;;;;5036227;28;20560;-68
2022/08/04 00:17:28;;;;;;;21.98;7.60;;;20.70;99.90;;;;;;5052638;28;20103;-66
2022/08/04 00:19:59;;;;;;;21.25;8.13;;;20.70;99.90;;;;;;5071907;28;20056;-65
2022/08/04 00:22:27;;;;;;;16.55;7.88;;;20.70;99.90;;;;;;5071816;28;20040;-66
2022/08/04 00:24:54;;;;;;;18.80;7.25;;;20.70;99.90;;;;;;5070833;28;20068;-68
2022/08/04 00:27:20;;;;;;;16.52;7.32;;;20.70;99.90;;;;;;5054119;28;20044;-67
2022/08/04 00:29:47;;;;;;;19.67;7.28;;;20.70;99.90;;;;;;5070243;28;20040;-67
2022/08/04 00:32:13;;;;;;;16.67;7.60;;;20.70;99.90;;;;;;5054772;28;20095;-65
2022/08/04 00:34:38;;;;;;;18.63;7.82;;;20.60;99.90;;;;;;5051701;28;20411;-66
2022/08/04 00:37:06;;;;;;;17.35;7.65;;;20.70;99.90;;;;;;5038464;28;20045;-65
2022/08/04 00:39:38;;;;;;;21.90;7.70;;;20.70;99.90;;;;;;5051865;28;20041;-65
2022/08/04 00:42:16;;;;;;;16.83;8.18;;;20.70;99.90;;;;;;5051565;28;20395;-66
2022/08/04 00:45:27;;;;;;;24.27;7.53;;;20.70;99.90;;;;;;5034501;28;20068;-66
2022/08/04 00:48:10;;;;;;;23.20;7.25;;;20.70;99.90;;;;;;5057339;28;20331;-66
2022/08/04 00:51:11;;;;;;;18.80;7.45;;;20.70;99.90;;;;;;5063349;28;20045;-64
2022/08/04 00:54:18;;;;;;;22.70;7.90;;;20.60;99.90;;;;;;5030374;28;20058;-66
2022/08/04 00:56:53;;;;;;;19.15;7.90;;;20.60;99.90;;;;;;5025880;28;20143;-66
2022/08/04 00:59:49;;;;;;;25.33;8.43;;;20.60;99.90;;;;;;5057676;28;20051;-66
2022/08/04 01:02:23;;;;;;;17.88;8.02;;;20.70;99.90;;;;;;5056581;28;20055;-65
2022/08/04 01:05:03;;;;;;;23.88;7.53;;;20.60;99.90;;;;;;5040144;28;20051;-64
2022/08/04 01:07:50;;;;;;;22.90;7.50;;;20.60;99.90;;;;;;5057483;28;20056;-66
2022/08/04 01:10:23;;;;;;;21.38;8.13;;;20.60;99.90;;;;;;5075329;28;20050;-67
2022/08/04 01:13:10;;;;;;;17.80;7.95;;;20.60;99.90;;;;;;5056712;28;20052;-66
2022/08/04 01:15:48;;;;;;;18.75;7.20;;;20.60;99.90;;;;;;5024126;28;20271;-65
2022/08/04 01:18:47;;;;;;;20.10;7.30;;;20.60;99.90;;;;;;5075955;28;20161;-66
2022/08/04 01:21:40;;;;;;;14.27;6.93;;;20.60;99.90;;;;;;5065673;28;20083;-67
2022/08/04 01:24:42;;;;;;;20.48;7.63;;;20.50;99.90;;;;;;5038328;28;20481;-66
2022/08/04 01:27:40;;;;;;;17.73;7.05;;;20.50;99.90;;;;;;5056081;28;20067;-67
2022/08/04 01:30:08;;;;;;;17.65;7.38;;;20.50;99.90;;;;;;5037354;28;20064;-66
2022/08/04 01:32:43;;;;;;;14.20;6.45;;;20.50;99.90;;;;;;5068609;28;20154;-65
2022/08/04 01:35:26;;;;;;;20.55;7.63;;;20.50;99.90;;;;;;5072867;28;20041;-67
2022/08/04 01:38:08;;;;;;;18.52;7.20;;;20.50;99.90;;;;;;5055613;28;20398;-67
2022/08/04 01:40:36;;;;;;;27.33;7.60;;;20.40;99.90;;;;;;5057168;28;20029;-65
2022/08/04 01:43:03;;;;;;;16.88;7.03;;;20.40;99.90;;;;;;5037154;28;20560;-65
2022/08/04 01:45:29;;;;;;;15.07;6.70;;;20.30;99.90;;;;;;5055380;28;20041;-66
2022/08/04 01:47:56;;;;;;;17.35;7.30;;;20.30;99.90;;;;;;5054733;28;20503;-66
2022/08/04 01:50:23;;;;;;;16.60;6.88;;;20.30;99.90;;;;;;5054695;28;20124;-68
2022/08/04 01:52:53;;;;;;;18.23;7.72;;;20.30;99.90;;;;;;5036625;28;20086;-67
2022/08/04 01:55:20;;;;;;;15.10;7.60;;;20.30;99.90;;;;;;5067972;28;20120;-66
2022/08/04 01:57:49;;;;;;;25.23;7.80;;;20.30;99.90;;;;;;5022367;28;20037;-66
2022/08/04 02:00:25;;;;;;;18.80;8.13;;;20.20;99.90;;;;;;5054967;28;20049;-66
2022/08/04 02:02:52;;;;;;;15.32;7.50;;;20.20;99.90;;;;;;5064353;28;20041;-66
2022/08/04 02:05:20;;;;;;;20.23;7.40;;;20.20;99.90;;;;;;5066521;28;20041;-67
2022/08/04 02:08:08;;;;;;;20.75;8.27;;;20.20;99.90;;;;;;5052865;28;20052;-66
2022/08/04 02:10:43;;;;;;;18.33;7.65;;;20.20;99.90;;;;;;5054337;28;20045;-66
2022/08/04 02:13:18;;;;;;;19.98;7.20;;;20.10;99.90;;;;;;5054513;28;20487;-66
2022/08/04 02:16:10;;;;;;;18.25;7.07;;;20.10;99.90;;;;;;5020524;28;20084;-68
2022/08/04 02:19:03;;;;;;;12.43;6.60;;;20.10;99.90;;;;;;5068730;28;20551;-66
2022/08/04 02:21:30;;;;;;;22.00;7.45;;;20.10;99.90;;;;;;5055960;28;20098;-67
2022/08/04 02:24:15;;;;;;;18.13;6.47;;;20.10;99.90;;;;;;5074367;28;20041;-66
2022/08/04 02:26:41;;;;;;;21.40;7.97;;;20.00;99.90;;;;;;5058678;28;20068;-67
2022/08/04 02:29:13;;;;;;;18.88;7.72;;;20.00;99.90;;;;;;5073842;28;20052;-66
2022/08/04 02:31:52;;;;;;;17.02;6.72;;;20.10;99.90;;;;;;5070280;28;20089;-67
2022/08/04 02:34:51;;;;;;;15.02;7.03;;;20.10;99.90;;;;;;5050963;28;20128;-65
2022/08/04 02:37:20;;;;;;;18.67;7.93;;;20.00;99.90;;;;;;5065622;28;20461;-65
2022/08/04 02:39:51;;;;;;;16.65;8.35;;;20.00;99.90;;;;;;5052397;28;20048;-66
2022/08/04 02:42:17;;;;;;;17.73;9.27;;;20.00;99.90;;;;;;5053457;28;20095;-66
2022/08/04 02:44:48;;;;;;;18.10;7.80;;;20.00;99.90;;;;;;5035630;28;20319;-65
2022/08/04 02:47:19;;;;;;;18.10;6.90;;;20.00;99.90;;;;;;5056333;28;20051;-68
2022/08/04 02:49:46;;;;;;;17.98;6.80;;;20.00;99.90;;;;;;5055167;28;20089;-65
2022/08/04 02:52:13;;;;;;;14.93;6.67;;;20.00;99.90;;;;;;5054057;28;20123;-67
2022/08/04 02:54:41;;;;;;;18.27;6.70;;;20.00;99.90;;;;;;5061559;28;20110;-68
2022/08/04 02:57:10;;;;;;;18.10;6.97;;;20.00;99.90;;;;;;5060099;28;20041;-67
2022/08/04 02:59:59;;;;;;;20.17;7.15;;;20.00;99.90;;;;;;5035664;28;20129;-66
2022/08/04 03:02:54;;;;;;;19.73;6.88;;;20.00;99.90;;;;;;5038174;28;20056;-67
2022/08/04 03:05:30;;;;;;;17.65;6.65;;;20.00;99.90;;;;;;5037817;28;20062;-66
2022/08/04 03:08:35;;;;;;;17.00;6.20;;;19.90;99.90;;;;;;5071258;28;20071;-65
2022/08/04 03:11:38;;;;;;;15.00;6.28;;;19.90;99.90;;;;;;5053367;28;20084;-66
2022/08/04 03:14:17;;;;;;;17.77;6.53;;;19.90;99.90;;;;;;5052886;28;20102;-66
2022/08/04 03:16:56;;;;;;;12.20;5.68;;;19.90;99.90;;;;;;5035416;28;20049;-65
2022/08/04 03:19:43;;;;;;;17.88;6.15;;;19.90;99.90;;;;;;5048287;28;20482;-65
2022/08/04 03:22:16;;;;;;;14.75;5.47;;;19.90;99.90;;;;;;5052675;28;20043;-66
2022/08/04 03:25:10;;;;;;;17.13;6.53;;;19.80;99.90;;;;;;5059217;28;20044;-66
2022/08/04 03:27:44;;;;;;;14.73;5.75;;;19.80;99.90;;;;;;5072713;28;20041;-65
2022/08/04 03:30:17;;;;;;;14.85;6.20;;;19.80;99.90;;;;;;5072462;28;20123;-65
2022/08/04 03:33:12;;;;;;;19.42;6.18;;;19.80;99.90;;;;;;5054170;28;20057;-66
2022/08/04 03:35:50;;;;;;;12.73;6.68;;;19.80;99.90;;;;;;5072450;28;20037;-67
2022/08/04 03:38:38;;;;;;;16.27;6.28;;;19.80;99.90;;;;;;5053053;28;20055;-65
2022/08/04 03:41:24;;;;;;;13.40;6.38;;;19.80;99.90;;;;;;5052864;28;20048;-65
2022/08/04 03:44:18;;;;;;;19.92;6.75;;;19.80;99.90;;;;;;5053096;28;20076;-65
2022/08/04 03:47:08;;;;;;;23.75;7.18;;;19.80;99.90;;;;;;5052197;28;20056;-65
2022/08/04 03:49:40;;;;;;;11.82;5.60;;;19.80;99.90;;;;;;5032406;28;20510;-67
2022/08/04 03:55:19;;;;;;;13.55;5.90;;;19.80;99.90;;;;;;5044585;28;20056;-65
2022/08/04 03:58:23;;;;;;;12.13;6.18;;;19.90;99.90;;;;;;5065183;28;20066;-67
2022/08/04 04:01:21;;;;;;;15.27;6.93;;;19.90;99.90;;;;;;5048260;28;20053;-67
2022/08/04 04:04:13;;;;;;;16.15;7.15;;;19.90;99.90;;;;;;5023527;28;20080;-66
2022/08/04 04:06:57;;;;;;;15.93;7.07;;;19.90;99.90;;;;;;5070812;28;20143;-65
2022/08/04 04:09:34;;;;;;;17.92;7.10;;;19.90;99.90;;;;;;5071345;28;20048;-65
2022/08/04 04:12:14;;;;;;;17.27;6.65;;;19.90;99.90;;;;;;5053909;28;20079;-66
2022/08/04 04:15:08;;;;;;;14.35;6.53;;;20.00;99.90;;;;;;5033254;28;20501;-66
2022/08/04 04:17:58;;;;;;;18.08;7.03;;;20.00;99.90;;;;;;5051857;28;20103;-66
2022/08/04 04:20:44;;;;;;;20.05;7.50;;;20.00;99.90;;;;;;5051644;28;20033;-66
2022/08/04 04:23:32;;;;;;;14.95;6.60;;;20.10;99.90;;;;;;5052228;28;20079;-66
2022/08/04 04:26:24;;;;;;;22.83;7.30;;;20.10;99.90;;;;;;5054883;28;20041;-65
2022/08/04 04:29:21;;;;;;;14.18;7.10;;;20.10;99.90;;;;;;5056491;28;20087;-66
2022/08/04 04:32:23;;;;;;;19.08;7.30;;;20.10;99.90;;;;;;5038165;28;20041;-67
2022/08/04 04:35:07;;;;;;;12.57;6.10;;;20.10;99.90;;;;;;4992860;28;20133;-66
2022/08/04 04:37:49;;;;;;;14.40;6.28;;;20.10;99.90;;;;;;5034916;28;20052;-66
2022/08/04 04:40:38;;;;;;;20.77;6.57;;;20.20;99.90;;;;;;5056187;28;20041;-66
2022/08/04 04:43:22;;;;;;;;;;;20.10;99.90;;;;;;5007408;28;20106;-68
2022/08/04 04:46:20;;;;;;;20.95;7.35;;;20.20;99.90;;;;;;5018522;28;19921;-66
2022/08/04 04:49:23;;;;;;;21.50;6.72;;;20.20;99.90;;;;;;5036019;28;20045;-67
2022/08/04 04:51:55;;;;;;;17.08;7.40;;;20.20;99.90;;;;;;5023466;28;20184;-66
2022/08/04 04:54:33;;;;;;;14.38;7.10;;;20.30;99.90;;;;;;5039269;28;20044;-67
2022/08/04 04:57:06;;;;;;;16.23;6.82;;;20.30;99.90;;;;;;5001569;28;20053;-66
2022/08/04 04:59:35;;;;;;;23.58;6.85;;;20.30;99.90;;;;;;5017611;28;20506;-66
2022/08/04 05:02:11;;;;;;;19.73;7.28;;;20.30;99.90;;;;;;5017304;28;20045;-66
2022/08/04 05:05:10;;;;;;;23.05;7.65;;;20.40;99.90;;;;;;5040536;28;20156;-65
2022/08/04 05:07:51;;;;;;;13.30;7.18;;;20.40;99.90;;;;;;5037883;28;20048;-65
2022/08/04 05:10:50;;;;;;;20.83;8.10;;;20.50;99.90;;;;;;5055534;28;20048;-66
2022/08/04 05:13:28;;;;;;;20.50;7.60;;;20.50;99.90;;;;;;5049363;28;20124;-66
2022/08/04 05:15:58;;;;;;;19.15;8.27;;;20.60;99.90;;;;;;5017863;28;20134;-66
2022/08/04 05:18:31;;;;;;;16.25;6.93;;;20.60;99.90;;;;;;5034059;28;20041;-66
2022/08/04 05:21:24;;;;;;;20.33;7.82;;;20.60;99.90;;;;;;5031447;28;20075;-68
2022/08/04 05:23:59;;;;;;;15.75;6.53;;;20.70;99.90;;;;;;5055008;28;20045;-66
2022/08/04 05:26:33;;;;;;;15.25;7.13;;;20.70;99.90;;;;;;5034565;28;20128;-67
2022/08/04 05:29:05;;;;;;;15.73;6.53;;;20.80;99.90;;;;;;5055308;28;20167;-65
2022/08/04 05:31:43;;;;;;;18.38;7.00;;;20.90;99.90;;;;;;5054771;28;20478;-66
2022/08/04 05:34:16;;;;;;;17.52;6.22;;;20.90;99.90;;;;;;5050767;28;20120;-66
2022/08/04 05:37:04;;;;;;;17.73;7.03;;;20.90;99.90;;;;;;5073019;28;20047;-66
2022/08/04 05:39:36;;;;;;;17.48;6.75;;;21.00;99.90;;;;;;5054688;28;20037;-67
2022/08/04 05:42:03;;;;;;;18.05;6.70;;;21.10;99.90;;;;;;5066377;28;20086;-65
2022/08/04 05:44:31;;;;;;;12.18;6.22;;;21.10;99.90;;;;;;5056952;28;20094;-67
2022/08/04 05:46:58;;;;;;;17.17;7.28;;;21.20;99.90;;;;;;5075447;28;20441;-68
2022/08/04 05:49:28;;;;;;;16.10;6.32;;;21.30;99.90;;;;;;5057041;28;20044;-66
2022/08/04 05:51:58;;;;;;;15.35;6.40;;;21.30;99.90;;;;;;5057025;28;20119;-66
2022/08/04 05:54:24;;;;;;;17.40;6.30;;;21.40;99.90;;;;;;5061276;28;20089;-65
2022/08/04 05:56:52;;;;;;;14.00;6.30;;;21.50;99.90;;;;;;5041643;28;20044;-66
2022/08/04 05:59:19;;;;;;;16.10;5.80;;;21.50;99.90;;;;;;5054783;28;20045;-66
2022/08/04 06:01:47;;;;;;;22.33;6.85;;;21.60;99.90;;;;;;5054878;28;20208;-66
2022/08/04 06:04:13;;;;;;;;;;;21.60;99.90;;;;;;5054994;28;20056;-65
2022/08/04 06:06:40;;;;;;;13.32;5.72;;;21.60;99.90;;;;;;5068817;28;19920;-66
2022/08/04 06:09:05;;;;;;;17.00;6.03;;;21.70;99.90;;;;;;5059677;28;20048;-67
2022/08/04 06:11:34;;;;;;;15.77;5.80;;;21.80;99.90;;;;;;5071003;28;20045;-65
2022/08/04 06:14:03;;;;;;;16.25;5.68;;;21.90;99.90;;;;;;5074213;28;20482;-65
2022/08/04 06:16:39;;;;;;;11.23;5.50;;;22.00;99.90;;;;;;5073697;28;20053;-67
2022/08/04 06:19:11;;;;;;;19.88;6.45;;;22.10;99.90;;;;;;5056241;28;20087;-66
2022/08/04 06:21:40;;;;;;;19.70;5.97;;;22.30;99.90;;;;;;5056918;28;20116;-66
2022/08/04 06:24:10;;;;;;;24.10;6.28;;;22.40;99.90;;;;;;5056746;28;20052;-66
2022/08/04 06:26:39;;;;;;;13.32;5.88;;;22.60;99.90;;;;;;5073173;28;20045;-65
2022/08/04 06:29:18;;;;;;;20.77;6.07;;;22.70;99.90;;;;;;5055647;28;20503;-66
2022/08/04 06:31:46;;;;;;;12.43;5.22;;;22.80;99.90;;;;;;5036435;28;20059;-67
2022/08/04 06:34:15;;;;;;;14.65;5.60;;;22.90;99.90;;;;;;5053857;28;20048;-67
2022/08/04 06:36:42;;;;;;;13.43;4.90;;;23.00;99.90;;;;;;5058686;28;20410;-67
2022/08/04 06:39:09;;;;;;;;;;;23.10;99.90;;;;;;5074416;28;20070;-67
2022/08/04 06:41:35;;;;;;;17.88;5.53;;;23.20;99.90;;;;;;5073646;28;20405;-66
2022/08/04 06:44:04;;;;;;;10.52;5.15;;;23.30;99.90;;;;;;5065875;28;20051;-67
2022/08/04 06:46:33;;;;;;;17.55;4.65;;;23.40;99.90;;;;;;5053480;28;20517;-67
2022/08/04 06:49:03;;;;;;;17.45;4.65;;;23.70;99.90;;;;;;5035146;28;20048;-67
2022/08/04 06:51:40;;;;;;;11.75;4.90;;;23.80;99.90;;;;;;5057395;28;20178;-66
2022/08/04 06:54:15;;;;;;;13.10;4.55;;;23.90;99.90;;;;;;5060955;28;20051;-66
2022/08/04 06:56:44;;;;;;;12.57;4.85;;;23.80;99.90;;;;;;5073223;28;20133;-64
2022/08/04 06:59:11;;;;;;;14.50;4.30;;;23.80;99.90;;;;;;5038290;28;20044;-66
2022/08/04 07:01:38;;;;;;;12.18;4.13;;;23.90;99.90;;;;;;5073369;28;20055;-67
2022/08/04 07:04:04;;;;;;;14.63;4.60;;;23.90;99.90;;;;;;5072966;28;20044;-66
2022/08/04 07:06:33;;;;;;;7.43;3.47;;;24.00;99.90;;;;;;5072066;28;20045;-68
2022/08/04 07:08:59;;;;;;;13.90;4.20;;;24.00;99.90;;;;;;5051317;28;20057;-65
2022/08/04 07:11:26;;;;;;;11.30;4.38;;;24.00;99.90;;;;;;5053291;28;20037;-66
2022/08/04 07:13:53;;;;;;;10.48;4.15;;;24.10;99.90;;;;;;5053026;28;20487;-66
2022/08/04 07:16:22;;;;;;;12.55;3.97;;;24.20;99.90;;;;;;5035328;28;20045;-66
2022/08/04 07:18:48;;;;;;;11.10;3.67;;;24.40;99.90;;;;;;5052903;28;20040;-67
2022/08/04 07:21:22;;;;;;;9.35;3.58;;;24.60;99.90;;;;;;5053880;28;20395;-66
2022/08/04 07:23:48;;;;;;;13.13;3.80;;;24.80;99.90;;;;;;5069464;28;20049;-65
2022/08/04 07:26:18;;;;;;;12.25;3.65;;;24.90;99.90;;;;;;5035207;28;20048;-66
2022/08/04 07:28:44;;;;;;;13.85;3.70;;;25.10;99.90;;;;;;5035353;28;20115;-66
2022/08/04 07:31:22;;;;;;;13.53;4.00;;;25.20;99.90;;;;;;5052765;28;20047;-66
2022/08/04 07:33:48;;;;;;;9.85;3.22;;;25.30;99.90;;;;;;5053044;28;20379;-67
2022/08/04 07:36:13;;;;;;;12.10;3.75;;;25.40;99.90;;;;;;5051122;28;20097;-68
2022/08/04 07:38:41;;;;;;;14.77;4.32;;;25.60;99.90;;;;;;5072796;28;20050;-66
2022/08/04 07:41:10;;;;;;;11.55;3.40;;;25.70;99.90;;;;;;5059549;28;20449;-66
2022/08/04 07:43:36;;;;;;;13.13;3.38;;;25.80;99.90;;;;;;5034589;28;20098;-66
2022/08/04 07:46:03;;;;;;;14.73;3.30;;;25.70;99.90;;;;;;5053779;28;20049;-65
2022/08/04 07:48:29;;;;;;;17.40;3.85;;;25.70;99.90;;;;;;5034550;28;20151;-65
2022/08/04 07:50:55;;;;;;;16.90;3.17;;;25.70;99.90;;;;;;5064953;28;20115;-66
2022/08/04 07:53:22;;;;;;;10.80;3.70;;;25.80;99.90;;;;;;5038740;28;20044;-66
2022/08/04 07:55:48;;;;;;;7.90;3.17;;;25.90;99.90;;;;;;5069550;28;20044;-65
2022/08/04 07:58:14;;;;;;;15.07;3.60;;;26.00;99.90;;;;;;5038736;28;20074;-66
2022/08/04 08:00:40;;;;;;;8.95;3.22;;;26.20;99.90;;;;;;5052052;28;20135;-67
2022/08/04 08:03:12;;;;;;;17.00;4.47;;;26.30;99.90;;;;;;5052278;28;20041;-66
2022/08/04 08:05:38;;;;;;;11.05;3.30;;;26.40;99.90;;;;;;5037107;28;20036;-66
2022/08/04 08:08:04;;;;;;;8.48;3.08;;;26.60;99.90;;;;;;5071583;28;20496;-65
2022/08/04 08:10:30;;;;;;;15.23;3.22;;;26.60;99.90;;;;;;5067686;28;20088;-66
2022/08/04 08:12:56;;;;;;;10.13;3.92;;;26.70;99.90;;;;;;5052059;28;20048;-66
2022/08/04 08:15:22;;;;;;;16.38;4.05;;;27.00;99.90;;;;;;5017973;28;20121;-66
2022/08/04 08:17:48;;;;;;;11.38;3.42;;;27.00;99.90;;;;;;5051650;28;20578;-66
2022/08/04 08:20:14;;;;;;;10.38;3.45;;;27.10;99.90;;;;;;5052394;28;20123;-66
2022/08/04 08:22:40;;;;;;;14.18;3.92;;;27.10;99.90;;;;;;5065946;28;20047;-66
2022/08/04 08:25:09;;;;;;;9.82;4.53;;;27.20;99.90;;;;;;5072078;28;20041;-69
2022/08/04 08:27:39;;;;;;;11.20;4.35;;;27.30;99.90;;;;;;5061464;28;20094;-65
2022/08/04 08:30:08;;;;;;;11.05;4.75;;;27.30;99.90;;;;;;5071933;28;20051;-68
2022/08/04 08:32:34;;;;;;;10.07;4.80;;;27.10;99.90;;;;;;5068546;28;20056;-66
2022/08/04 08:35:00;;;;;;;9.85;4.47;;;27.10;99.90;;;;;;5050531;28;20422;-66
2022/08/04 08:37:37;;;;;;;14.13;5.28;;;27.00;99.90;;;;;;5044643;28;20066;-66
2022/08/04 08:40:47;;;;;;;15.25;4.63;;;27.00;99.90;;;;;;5054081;28;20074;-65
2022/08/04 08:43:32;;;;;;;8.25;4.50;;;27.00;99.90;;;;;;5051929;28;20051;-67
2022/08/04 08:46:25;;;;;;;12.05;4.75;;;27.20;99.90;;;;;;5026482;28;20037;-67
2022/08/04 08:49:03;;;;;;;10.55;4.70;;;27.30;99.90;;;;;;5052149;28;20127;-67
2022/08/04 08:51:48;;;;;;;16.33;4.85;;;27.40;99.90;;;;;;5053123;28;20081;-65
2022/08/04 08:54:33;;;;;;;11.27;4.80;;;27.40;99.90;;;;;;5067302;28;20049;-66
2022/08/04 08:57:19;;;;;;;9.63;5.55;;;27.40;99.90;;;;;;5033744;28;20110;-64
2022/08/04 09:00:07;;;;;;;7.38;4.28;;;27.40;99.90;;;;;;5052312;28;20049;-66
2022/08/04 09:02:43;;;;;;;;;;;27.40;99.90;;;;;;5043383;28;20054;-67
2022/08/04 09:05:29;;;;;;;17.00;5.18;;;27.30;99.90;;;;;;5051386;28;19968;-66
2022/08/04 09:08:24;;;;;;;12.27;4.60;;;27.40;99.90;;;;;;5062961;28;20044;-66
2022/08/04 09:10:58;;;;;;;15.68;5.97;;;27.40;99.90;;;;;;5072322;28;20127;-66
2022/08/04 09:13:32;;;;;;;13.73;5.00;;;27.50;99.90;;;;;;5075472;28;20043;-65
2022/08/04 09:16:15;;;;;;;11.45;4.80;;;27.50;99.90;;;;;;5057212;28;20037;-64
2022/08/04 09:19:04;;;;;;;13.02;6.68;;;27.60;99.90;;;;;;5053994;28;20084;-66
2022/08/04 09:21:43;;;;;;;12.23;5.68;;;27.60;99.90;;;;;;5054876;28;20076;-66
2022/08/04 09:24:21;;;;;;;14.40;5.03;;;27.50;99.90;;;;;;5056945;28;20045;-66
2022/08/04 09:27:00;;;;;;;13.35;5.80;;;27.40;99.90;;;;;;5054888;28;20056;-66
2022/08/04 09:29:53;;;;;;;13.50;5.90;;;27.60;99.90;;;;;;5055214;28;20048;-65
2022/08/04 09:32:37;;;;;;;13.73;4.57;;;27.60;99.90;;;;;;5054947;28;20045;-66
2022/08/04 09:35:23;;;;;;;9.48;4.32;;;27.60;99.90;;;;;;5054953;28;20128;-67
2022/08/04 09:38:10;;;;;;;9.88;4.13;;;27.60;99.60;;;;;;5061485;28;20402;-68
2022/08/04 09:40:44;;;;;;;14.80;4.55;;;27.60;99.90;;;;;;5055893;28;20049;-66
2022/08/04 09:43:35;;;;;;;8.30;4.70;;;27.60;99.90;;;;;;5054920;28;20037;-66
2022/08/04 09:46:13;;;;;;;10.75;4.57;;;27.80;99.60;;;;;;5055010;28;20044;-66
2022/08/04 09:48:49;;;;;;;14.05;4.25;;;27.90;99.90;;;;;;5054728;28;20583;-67
2022/08/04 09:51:52;;;;;;;11.43;4.63;;;28.00;99.90;;;;;;5036658;28;20053;-66
2022/08/04 09:54:43;;;;;;;9.40;4.28;;;28.30;99.90;;;;;;5027013;28;20049;-66
2022/08/04 09:57:35;;;;;;;10.93;4.20;;;28.40;99.20;;;;;;5071288;28;20110;-66
2022/08/04 10:00:15;;;;;;;9.15;3.92;;;28.40;99.10;;;;;;5052499;28;20048;-65
2022/08/04 10:02:49;;;;;;;9.73;3.40;;;28.20;99.40;;;;;;5074285;28;20048;-65
2022/08/04 10:05:25;;;;;;;10.20;4.53;;;28.10;99.90;;;;;;5050229;28;20126;-66
2022/08/04 10:08:09;;;;;;;16.45;4.00;;;28.10;99.90;;;;;;5055328;28;20049;-66
2022/08/04 10:10:49;;;;;;;10.50;3.25;;;28.30;99.70;;;;;;5067669;28;20053;-64
2022/08/04 10:13:34;;;;;;;6.93;2.85;;;28.40;99.90;;;;;;5043762;28;20435;-65
2022/08/04 10:16:29;;;;;;;10.75;2.55;;;28.70;98.80;;;;;;5039248;28;20071;-66
2022/08/04 10:19:19;;;;;;;11.43;2.70;;;28.80;97.60;;;;;;5065217;28;20045;-66
2022/08/04 10:22:13;;;;;;;7.65;2.63;;;29.00;97.10;;;;;;5061580;28;20140;-66
2022/08/04 10:25:07;;;;;;;7.80;2.55;;;29.00;97.20;;;;;;5069019;28;20095;-67
2022/08/04 10:27:38;;;;;;;7.10;2.38;;;29.10;96.20;;;;;;5053825;28;20087;-65
2022/08/04 10:30:10;;;;;;;8.18;2.47;;;29.10;95.80;;;;;;5019695;28;20140;-65
2022/08/04 10:33:01;;;;;;;9.82;2.53;;;29.10;95.30;;;;;;5053760;28;20434;-65
2022/08/04 10:35:36;;;;;;;9.98;2.50;;;29.10;95.20;;;;;;5053482;28;20517;-66
2022/08/04 10:38:05;;;;;;;10.15;2.97;;;29.00;94.60;;;;;;5058154;28;20070;-67
2022/08/04 10:40:36;;;;;;;7.13;2.38;;;28.80;95.00;;;;;;5055661;28;20044;-65
2022/08/04 10:43:14;;;;;;;10.80;3.08;;;28.90;95.50;;;;;;5047664;28;20128;-66
2022/08/04 10:45:44;;;;;;;9.27;2.28;;;29.10;96.30;;;;;;5053407;28;20075;-64
2022/08/04 10:48:25;;;;;;;11.88;2.58;;;29.30;96.40;;;;;;5054016;28;20450;-66
2022/08/04 10:51:28;;;;;;;16.27;2.75;;;29.50;95.90;;;;;;5053574;28;20044;-66
2022/08/04 10:54:10;;;;;;;7.53;2.78;;;29.50;96.20;;;;;;5060770;28;20036;-65
2022/08/04 10:57:00;;;;;;;16.10;3.10;;;29.50;95.60;;;;;;5035406;28;20064;-65
2022/08/04 10:59:48;;;;;;;12.38;2.95;;;29.40;95.60;;;;;;5053449;28;20064;-66
2022/08/04 11:02:34;;;;;;;;;;;29.30;96.50;;;;;;5054190;28;20048;-64
2022/08/04 11:05:27;;;;;;;11.13;2.95;;;29.30;96.50;;;;;;5035748;28;20294;-65
2022/08/04 11:07:59;;;;;;;12.48;2.40;;;29.20;96.10;;;;;;5007284;28;20049;-66
2022/08/04 11:10:29;;;;;;;9.02;2.40;;;29.20;96.60;;;;;;5044919;28;20049;-64
2022/08/04 11:13:00;;;;;;;12.15;2.70;;;29.20;96.20;;;;;;5053278;28;20048;-64
2022/08/04 11:15:36;;;;;;;8.68;2.25;;;29.20;95.30;;;;;;5054796;28;20068;-65
2022/08/04 11:18:09;;;;;;;7.13;2.28;;;29.10;95.30;;;;;;5055168;28;20051;-66
2022/08/04 11:21:00;;;;;;;6.97;1.98;;;29.20;94.30;;;;;;5057490;28;20051;-66
2022/08/04 11:23:33;;;;;;;7.50;2.30;;;29.10;94.90;;;;;;5070478;28;20041;-65
2022/08/04 11:26:10;;;;;;;5.82;2.10;;;29.10;95.70;;;;;;5053297;28;20048;-66
2022/08/04 11:28:54;;;;;;;12.93;2.33;;;29.20;95.40;;;;;;5035151;28;20487;-66
2022/08/04 11:31:27;;;;;;;6.60;2.25;;;29.10;96.00;;;;;;5034595;28;20047;-65
2022/08/04 11:34:11;;;;;;;6.05;1.85;;;29.10;95.70;;;;;;5031277;28;20057;-64
2022/08/04 11:37:02;;;;;;;8.45;2.03;;;29.00;95.70;;;;;;5046506;28;20045;-67
2022/08/04 11:40:05;;;;;;;4.82;1.90;;;29.10;95.20;;;;;;5051234;28;20048;-65
2022/08/04 11:42:42;;;;;;;3.50;1.65;;;29.00;95.50;;;;;;5031786;28;20087;-67
2022/08/04 11:45:29;;;;;;;3.65;1.40;;;28.90;95.80;;;;;;5032645;28;20037;-66
2022/08/04 11:48:12;;;;;;;14.93;2.78;;;28.90;95.20;;;;;;5036084;28;20037;-65
2022/08/04 11:50:43;;;;;;;9.63;1.90;;;29.00;95.30;;;;;;5052533;28;20053;-68
2022/08/04 11:53:18;;;;;;;7.28;1.90;;;29.00;95.00;;;;;;5048762;28;20037;-65
2022/08/04 11:55:49;;;;;;;7.25;1.98;;;29.10;95.00;;;;;;5068360;28;20049;-65
2022/08/04 11:58:19;;;;;;;8.57;1.90;;;29.00;93.80;;;;;;5072384;28;20127;-67
2022/08/04 12:01:11;;;;;;;9.55;1.67;;;28.80;94.60;;;;;;5072245;28;20119;-65
2022/08/04 12:04:12;;;;;;;6.53;1.70;;;28.70;94.60;;;;;;5050501;28;20157;-65
2022/08/04 12:06:58;;;;;;;6.35;1.95;;;28.50;94.20;;;;;;4998146;28;20092;-66
2022/08/04 12:09:27;;;;;;;4.07;1.80;;;28.40;94.40;;;;;;5051561;28;20049;-65
2022/08/04 12:12:17;;;;;;;5.38;1.83;;;28.30;95.00;;;;;;5033534;28;20128;-66
2022/08/04 12:14:53;;;;;;;4.22;1.77;;;28.40;94.00;;;;;;5042375;28;20041;-65
2022/08/04 12:17:51;;;;;;;4.95;1.52;;;28.40;92.90;;;;;;5032064;28;20050;-66
2022/08/04 12:20:21;;;;;;;6.53;2.03;;;28.20;92.60;;;;;;5032142;28;20045;-65
2022/08/04 12:22:49;;;;;;;3.17;1.50;;;27.90;93.30;;;;;;5032289;28;20045;-66
2022/08/04 12:25:31;;;;;;;4.57;1.30;;;27.80;92.90;;;;;;5048656;28;20048;-65
2022/08/04 12:28:04;;;;;;;6.35;1.40;;;27.70;93.70;;;;;;5038772;28;20048;-66
2022/08/04 12:30:41;;;;;;;3.20;1.45;;;27.60;93.40;;;;;;5032085;28;20065;-66
2022/08/04 12:33:17;;;;;;;5.60;1.60;;;27.50;93.20;;;;;;5033701;28;20107;-65
2022/08/04 12:35:59;;;;;;;4.15;1.50;;;27.40;93.30;;;;;;5051787;28;20506;-67
2022/08/04 12:38:31;;;;;;;4.57;1.55;;;27.40;93.00;;;;;;5051535;28;20041;-65
2022/08/04 12:41:02;;;;;;;2.08;1.25;;;27.20;92.90;;;;;;5063346;28;20037;-66
2022/08/04 12:43:40;;;;;;;7.50;2.28;;;27.10;93.00;;;;;;5051708;28;20072;-66
2022/08/04 12:46:27;;;;;;;4.70;1.40;;;26.90;93.60;;;;;;5035855;28;20045;-65
2022/08/04 12:49:01;;;;;;;5.57;1.50;;;26.80;93.90;;;;;;5038319;28;20442;-66
2022/08/04 12:51:27;;;;;;;5.05;1.83;;;26.80;93.80;;;;;;5055581;28;20090;-67
2022/08/04 12:53:55;;;;;;;3.70;1.40;;;26.90;94.10;;;;;;5042306;28;20048;-66
2022/08/04 12:56:27;;;;;;;5.43;1.55;;;27.10;94.10;;;;;;5095658;28;20448;-66
2022/08/04 12:59:00;;;;;;;4.63;1.60;;;27.30;93.50;;;;;;5081894;28;20118;-65
2022/08/04 13:01:26;;;;;;;5.60;1.60;;;27.40;93.00;;;;;;5074275;28;20390;-65
2022/08/04 13:03:56;;;;;;;2.60;1.20;;;27.50;93.00;;;;;;5041021;28;20037;-65
2022/08/04 13:06:26;;;;;;;3.60;1.48;;;27.50;93.40;;;;;;5069242;28;20040;-67
2022/08/04 13:08:53;;;;;;;2.05;1.23;;;27.60;92.70;;;;;;5074248;28;20068;-66
2022/08/04 13:11:21;;;;;;;3.38;1.17;;;27.60;91.70;;;;;;5055221;28;20148;-66
2022/08/04 13:13:53;;;;;;;4.18;1.40;;;27.70;92.40;;;;;;5055042;28;20506;-66
2022/08/04 13:16:28;;;;;;;5.88;1.60;;;27.80;93.20;;;;;;5054629;28;20049;-65
2022/08/04 13:18:55;;;;;;;4.20;1.10;;;27.90;93.00;;;;;;5041559;28;20071;-66
2022/08/04 13:21:24;;;;;;;4.15;1.60;;;28.00;92.80;;;;;;5075139;28;20045;-66
2022/08/04 13:23:52;;;;;;;3.08;1.20;;;28.00;92.20;;;;;;5073433;28;20044;-66
2022/08/04 13:26:21;;;;;;;3.25;1.50;;;27.90;92.30;;;;;;5069775;28;20056;-65
2022/08/04 13:28:52;;;;;;;2.58;1.25;;;28.10;92.90;;;;;;5074758;28;20059;-65
2022/08/04 13:31:22;;;;;;;5.78;1.65;;;28.40;92.80;;;;;;5039817;28;20041;-66
2022/08/04 13:33:51;;;;;;;3.80;1.33;;;28.70;91.50;;;;;;5073358;28;20129;-65
2022/08/04 13:36:19;;;;;;;5.40;1.65;;;28.80;91.30;;;;;;5075214;28;20048;-65